sensor_id;sensor_type;location;lat;lon;timestamp;P1;durP1;ratioP1;P2;durP2;ratioP2
7645;SDS011;3864;48.180;14.178;2023-05-27T00:02:06;8.45;;;5.30;;
7645;SDS011;3864;48.180;14.178;2023-05-27T00:04:34;8.30;;;5.30;;
7645;SDS011;3864;48.180;14.178;2023-05-27T00:07:01;8.43;;;5.18;;
7645;SDS011;3864;48.180;14.178;2023-05-27T00:09:29;8.80;;;5.05;;
7645;SDS011;3864;48.180;14.178;2023-05-27T00:11:56;12.55;;;5.72;;
7645;SDS011;3864;48.180;14.178;2023-05-27T00:14:24;9.25;;;5.53;;
7645;SDS011;3864;48.180;14.178;2023-05-27T00:16:51;7.93;;;5.32;;
7645;SDS011;3864;48.180;14.178;2023-05-27T00:19:21;8.85;;;5.13;;
7645;SDS011;3864;48.180;14.178;2023-05-27T00:21:48;8.93;;;5.65;;
7645;SDS011;3864;48.180;14.178;2023-05-27T00:24:17;7.30;;;5.03;;
7645;SDS011;3864;48.180;14.178;2023-05-27T00:26:45;9.65;;;5.35;;
7645;SDS011;3864;48.180;14.178;2023-05-27T00:29:12;11.10;;;4.65;;
7645;SDS011;3864;48.180;14.178;2023-05-27T00:31:39;9.60;;;4.53;;
7645;SDS011;3864;48.180;14.178;2023-05-27T00:34:07;8.98;;;5.07;;
7645;SDS011;3864;48.180;14.178;2023-05-27T00:36:36;7.90;;;4.50;;
7645;SDS011;3864;48.180;14.178;2023-05-27T00:39:03;11.15;;;5.35;;
7645;SDS011;3864;48.180;14.178;2023-05-27T00:41:31;7.93;;;4.53;;
7645;SDS011;3864;48.180;14.178;2023-05-27T00:44:00;10.73;;;4.53;;
7645;SDS011;3864;48.180;14.178;2023-05-27T00:46:28;11.63;;;4.97;;
7645;SDS011;3864;48.180;14.178;2023-05-27T00:48:55;8.18;;;4.43;;
7645;SDS011;3864;48.180;14.178;2023-05-27T00:51:22;11.20;;;4.45;;
7645;SDS011;3864;48.180;14.178;2023-05-27T00:53:52;9.65;;;5.18;;
7645;SDS011;3864;48.180;14.178;2023-05-27T00:56:19;9.77;;;4.70;;
7645;SDS011;3864;48.180;14.178;2023-05-27T00:58:46;11.18;;;4.60;;
7645;SDS011;3864;48.180;14.178;2023-05-27T01:01:14;6.40;;;4.68;;
7645;SDS011;3864;48.180;14.178;2023-05-27T01:03:42;10.70;;;4.90;;
7645;SDS011;3864;48.180;14.178;2023-05-27T01:06:12;7.82;;;4.90;;
7645;SDS011;3864;48.180;14.178;2023-05-27T01:08:50;10.70;;;4.57;;
7645;SDS011;3864;48.180;14.178;2023-05-27T01:11:27;8.52;;;5.05;;
7645;SDS011;3864;48.180;14.178;2023-05-27T01:13:58;7.05;;;5.13;;
7645;SDS011;3864;48.180;14.178;2023-05-27T01:16:29;9.95;;;6.47;;
7645;SDS011;3864;48.180;14.178;2023-05-27T01:18:57;8.23;;;5.85;;
7645;SDS011;3864;48.180;14.178;2023-05-27T01:21:29;10.05;;;4.75;;
7645;SDS011;3864;48.180;14.178;2023-05-27T01:24:04;9.18;;;5.63;;
7645;SDS011;3864;48.180;14.178;2023-05-27T01:26:32;7.57;;;5.22;;
7645;SDS011;3864;48.180;14.178;2023-05-27T01:28:59;9.30;;;5.18;;
7645;SDS011;3864;48.180;14.178;2023-05-27T01:31:28;10.52;;;5.07;;
7645;SDS011;3864;48.180;14.178;2023-05-27T01:34:01;9.57;;;5.55;;
7645;SDS011;3864;48.180;14.178;2023-05-27T01:36:33;8.35;;;5.35;;
7645;SDS011;3864;48.180;14.178;2023-05-27T01:39:07;11.90;;;5.68;;
7645;SDS011;3864;48.180;14.178;2023-05-27T01:41:36;8.02;;;5.07;;
7645;SDS011;3864;48.180;14.178;2023-05-27T01:44:04;8.38;;;4.35;;
7645;SDS011;3864;48.180;14.178;2023-05-27T01:46:33;7.63;;;5.38;;
7645;SDS011;3864;48.180;14.178;2023-05-27T01:49:00;12.23;;;5.22;;
7645;SDS011;3864;48.180;14.178;2023-05-27T01:51:27;6.72;;;4.72;;
7645;SDS011;3864;48.180;14.178;2023-05-27T01:53:54;9.18;;;4.68;;
7645;SDS011;3864;48.180;14.178;2023-05-27T01:56:23;8.82;;;4.95;;
7645;SDS011;3864;48.180;14.178;2023-05-27T01:58:51;12.13;;;5.75;;
7645;SDS011;3864;48.180;14.178;2023-05-27T02:01:18;10.20;;;5.35;;
7645;SDS011;3864;48.180;14.178;2023-05-27T02:03:47;7.40;;;5.55;;
7645;SDS011;3864;48.180;14.178;2023-05-27T02:06:14;9.82;;;5.57;;
7645;SDS011;3864;48.180;14.178;2023-05-27T02:08:41;8.93;;;5.10;;
7645;SDS011;3864;48.180;14.178;2023-05-27T02:11:09;10.73;;;5.53;;
7645;SDS011;3864;48.180;14.178;2023-05-27T02:13:38;9.65;;;5.05;;
7645;SDS011;3864;48.180;14.178;2023-05-27T02:16:06;10.25;;;5.38;;
7645;SDS011;3864;48.180;14.178;2023-05-27T02:18:33;9.98;;;5.47;;
7645;SDS011;3864;48.180;14.178;2023-05-27T02:21:01;7.72;;;5.03;;
7645;SDS011;3864;48.180;14.178;2023-05-27T02:23:31;11.20;;;5.00;;
7645;SDS011;3864;48.180;14.178;2023-05-27T02:25:58;9.77;;;5.95;;
7645;SDS011;3864;48.180;14.178;2023-05-27T02:28:26;10.63;;;5.60;;
7645;SDS011;3864;48.180;14.178;2023-05-27T02:30:54;8.95;;;5.20;;
7645;SDS011;3864;48.180;14.178;2023-05-27T02:33:23;10.00;;;4.80;;
7645;SDS011;3864;48.180;14.178;2023-05-27T02:35:50;11.77;;;5.53;;
7645;SDS011;3864;48.180;14.178;2023-05-27T02:38:17;9.40;;;5.25;;
7645;SDS011;3864;48.180;14.178;2023-05-27T02:40:44;9.10;;;5.65;;
7645;SDS011;3864;48.180;14.178;2023-05-27T02:43:12;9.88;;;5.68;;
7645;SDS011;3864;48.180;14.178;2023-05-27T02:45:39;10.27;;;4.93;;
7645;SDS011;3864;48.180;14.178;2023-05-27T02:48:08;13.15;;;5.70;;
7645;SDS011;3864;48.180;14.178;2023-05-27T02:50:35;9.13;;;5.57;;
7645;SDS011;3864;48.180;14.178;2023-05-27T02:53:02;11.48;;;6.20;;
7645;SDS011;3864;48.180;14.178;2023-05-27T02:55:30;9.25;;;5.13;;
7645;SDS011;3864;48.180;14.178;2023-05-27T02:57:57;9.70;;;5.30;;
7645;SDS011;3864;48.180;14.178;2023-05-27T03:00:25;9.02;;;5.20;;
7645;SDS011;3864;48.180;14.178;2023-05-27T03:02:52;9.48;;;4.63;;
7645;SDS011;3864;48.180;14.178;2023-05-27T03:05:21;9.27;;;5.47;;
7645;SDS011;3864;48.180;14.178;2023-05-27T03:07:49;11.77;;;5.13;;
7645;SDS011;3864;48.180;14.178;2023-05-27T03:10:16;8.98;;;5.00;;
7645;SDS011;3864;48.180;14.178;2023-05-27T03:12:44;11.45;;;5.60;;
7645;SDS011;3864;48.180;14.178;2023-05-27T03:15:11;12.48;;;5.80;;
7645;SDS011;3864;48.180;14.178;2023-05-27T03:17:39;8.73;;;5.30;;
7645;SDS011;3864;48.180;14.178;2023-05-27T03:20:07;8.55;;;5.68;;
7645;SDS011;3864;48.180;14.178;2023-05-27T03:22:36;10.07;;;5.40;;
7645;SDS011;3864;48.180;14.178;2023-05-27T03:25:04;10.27;;;6.15;;
7645;SDS011;3864;48.180;14.178;2023-05-27T03:27:32;10.77;;;5.00;;
7645;SDS011;3864;48.180;14.178;2023-05-27T03:30:00;13.57;;;6.38;;
7645;SDS011;3864;48.180;14.178;2023-05-27T03:32:28;13.00;;;6.28;;
7645;SDS011;3864;48.180;14.178;2023-05-27T03:34:55;8.65;;;6.28;;
7645;SDS011;3864;48.180;14.178;2023-05-27T03:37:23;10.57;;;6.90;;
7645;SDS011;3864;48.180;14.178;2023-05-27T03:39:52;9.50;;;5.95;;
7645;SDS011;3864;48.180;14.178;2023-05-27T03:42:19;11.27;;;5.85;;
7645;SDS011;3864;48.180;14.178;2023-05-27T03:44:46;10.90;;;5.90;;
7645;SDS011;3864;48.180;14.178;2023-05-27T03:47:14;8.07;;;5.13;;
7645;SDS011;3864;48.180;14.178;2023-05-27T03:49:43;7.50;;;5.43;;
7645;SDS011;3864;48.180;14.178;2023-05-27T03:52:10;11.27;;;5.63;;
7645;SDS011;3864;48.180;14.178;2023-05-27T03:54:37;12.98;;;6.28;;
7645;SDS011;3864;48.180;14.178;2023-05-27T03:57:07;10.45;;;4.90;;
7645;SDS011;3864;48.180;14.178;2023-05-27T03:59:35;11.05;;;5.30;;
7645;SDS011;3864;48.180;14.178;2023-05-27T04:02:03;11.02;;;5.68;;
7645;SDS011;3864;48.180;14.178;2023-05-27T04:04:31;10.90;;;5.47;;
7645;SDS011;3864;48.180;14.178;2023-05-27T04:06:59;10.82;;;5.90;;
7645;SDS011;3864;48.180;14.178;2023-05-27T04:09:28;9.52;;;5.15;;
7645;SDS011;3864;48.180;14.178;2023-05-27T04:11:55;9.27;;;5.28;;
7645;SDS011;3864;48.180;14.178;2023-05-27T04:14:24;9.73;;;5.70;;
7645;SDS011;3864;48.180;14.178;2023-05-27T04:16:52;9.32;;;5.53;;
7645;SDS011;3864;48.180;14.178;2023-05-27T04:19:20;8.38;;;5.05;;
7645;SDS011;3864;48.180;14.178;2023-05-27T04:21:47;10.30;;;4.68;;
7645;SDS011;3864;48.180;14.178;2023-05-27T04:24:15;11.32;;;5.90;;
7645;SDS011;3864;48.180;14.178;2023-05-27T04:26:42;9.00;;;5.25;;
7645;SDS011;3864;48.180;14.178;2023-05-27T04:29:10;11.50;;;5.10;;
7645;SDS011;3864;48.180;14.178;2023-05-27T04:31:39;11.27;;;5.15;;
7645;SDS011;3864;48.180;14.178;2023-05-27T04:34:07;10.75;;;5.70;;
7645;SDS011;3864;48.180;14.178;2023-05-27T04:36:34;8.95;;;4.95;;
7645;SDS011;3864;48.180;14.178;2023-05-27T04:39:02;8.65;;;5.13;;
7645;SDS011;3864;48.180;14.178;2023-05-27T04:41:30;13.20;;;5.47;;
7645;SDS011;3864;48.180;14.178;2023-05-27T04:43:57;8.65;;;5.00;;
7645;SDS011;3864;48.180;14.178;2023-05-27T04:46:25;11.10;;;5.35;;
7645;SDS011;3864;48.180;14.178;2023-05-27T04:48:55;9.60;;;5.22;;
7645;SDS011;3864;48.180;14.178;2023-05-27T04:51:22;8.98;;;5.10;;
7645;SDS011;3864;48.180;14.178;2023-05-27T04:53:49;10.68;;;5.25;;
7645;SDS011;3864;48.180;14.178;2023-05-27T04:56:17;9.45;;;5.32;;
7645;SDS011;3864;48.180;14.178;2023-05-27T04:58:44;9.38;;;4.47;;
7645;SDS011;3864;48.180;14.178;2023-05-27T05:01:13;9.98;;;5.03;;
7645;SDS011;3864;48.180;14.178;2023-05-27T05:03:45;9.52;;;5.10;;
7645;SDS011;3864;48.180;14.178;2023-05-27T05:06:21;10.90;;;5.70;;
7645;SDS011;3864;48.180;14.178;2023-05-27T05:08:48;10.00;;;4.82;;
7645;SDS011;3864;48.180;14.178;2023-05-27T05:11:16;10.45;;;4.95;;
7645;SDS011;3864;48.180;14.178;2023-05-27T05:13:44;7.40;;;5.38;;
7645;SDS011;3864;48.180;14.178;2023-05-27T05:16:11;7.68;;;4.50;;
7645;SDS011;3864;48.180;14.178;2023-05-27T05:18:38;9.77;;;4.65;;
7645;SDS011;3864;48.180;14.178;2023-05-27T05:21:05;8.63;;;4.28;;
7645;SDS011;3864;48.180;14.178;2023-05-27T05:23:34;6.07;;;3.85;;
7645;SDS011;3864;48.180;14.178;2023-05-27T05:26:02;9.90;;;4.15;;
7645;SDS011;3864;48.180;14.178;2023-05-27T05:28:31;9.13;;;4.03;;
7645;SDS011;3864;48.180;14.178;2023-05-27T05:31:00;8.55;;;4.07;;
7645;SDS011;3864;48.180;14.178;2023-05-27T05:33:28;10.57;;;4.13;;
7645;SDS011;3864;48.180;14.178;2023-05-27T05:35:55;8.80;;;3.97;;
7645;SDS011;3864;48.180;14.178;2023-05-27T05:38:22;6.55;;;3.65;;
7645;SDS011;3864;48.180;14.178;2023-05-27T05:40:51;9.63;;;4.05;;
7645;SDS011;3864;48.180;14.178;2023-05-27T05:43:19;8.40;;;3.88;;
7645;SDS011;3864;48.180;14.178;2023-05-27T05:45:46;9.20;;;4.57;;
7645;SDS011;3864;48.180;14.178;2023-05-27T05:48:14;6.57;;;4.40;;
7645;SDS011;3864;48.180;14.178;2023-05-27T05:50:41;10.15;;;4.25;;
7645;SDS011;3864;48.180;14.178;2023-05-27T05:53:08;9.43;;;4.75;;
7645;SDS011;3864;48.180;14.178;2023-05-27T05:55:36;7.43;;;4.18;;
7645;SDS011;3864;48.180;14.178;2023-05-27T05:58:05;7.40;;;4.13;;
7645;SDS011;3864;48.180;14.178;2023-05-27T06:00:32;8.10;;;4.18;;
7645;SDS011;3864;48.180;14.178;2023-05-27T06:03:00;9.32;;;4.22;;
7645;SDS011;3864;48.180;14.178;2023-05-27T06:05:27;9.18;;;4.38;;
7645;SDS011;3864;48.180;14.178;2023-05-27T06:07:54;7.97;;;3.72;;
7645;SDS011;3864;48.180;14.178;2023-05-27T06:10:22;8.98;;;4.22;;
7645;SDS011;3864;48.180;14.178;2023-05-27T06:12:49;10.13;;;4.63;;
7645;SDS011;3864;48.180;14.178;2023-05-27T06:15:18;7.53;;;3.95;;
7645;SDS011;3864;48.180;14.178;2023-05-27T06:17:45;6.18;;;3.83;;
7645;SDS011;3864;48.180;14.178;2023-05-27T06:20:14;8.82;;;4.40;;
7645;SDS011;3864;48.180;14.178;2023-05-27T06:22:41;11.40;;;4.57;;
7645;SDS011;3864;48.180;14.178;2023-05-27T06:25:08;9.45;;;3.60;;
7645;SDS011;3864;48.180;14.178;2023-05-27T06:27:36;7.78;;;3.83;;
7645;SDS011;3864;48.180;14.178;2023-05-27T06:30:03;10.45;;;4.97;;
7645;SDS011;3864;48.180;14.178;2023-05-27T06:32:33;8.13;;;3.95;;
7645;SDS011;3864;48.180;14.178;2023-05-27T06:35:02;8.30;;;4.70;;
7645;SDS011;3864;48.180;14.178;2023-05-27T06:37:31;8.07;;;3.42;;
7645;SDS011;3864;48.180;14.178;2023-05-27T06:39:58;9.95;;;5.38;;
7645;SDS011;3864;48.180;14.178;2023-05-27T06:42:26;8.15;;;3.47;;
7645;SDS011;3864;48.180;14.178;2023-05-27T06:44:53;7.18;;;3.55;;
7645;SDS011;3864;48.180;14.178;2023-05-27T06:47:21;10.38;;;4.53;;
7645;SDS011;3864;48.180;14.178;2023-05-27T06:49:50;6.55;;;3.53;;
7645;SDS011;3864;48.180;14.178;2023-05-27T06:52:19;10.60;;;4.40;;
7645;SDS011;3864;48.180;14.178;2023-05-27T06:54:46;6.55;;;4.00;;
7645;SDS011;3864;48.180;14.178;2023-05-27T06:57:14;7.75;;;4.43;;
7645;SDS011;3864;48.180;14.178;2023-05-27T06:59:41;9.75;;;4.20;;
7645;SDS011;3864;48.180;14.178;2023-05-27T07:02:08;8.07;;;3.83;;
7645;SDS011;3864;48.180;14.178;2023-05-27T07:04:36;10.73;;;4.72;;
7645;SDS011;3864;48.180;14.178;2023-05-27T07:07:05;6.97;;;4.18;;
7645;SDS011;3864;48.180;14.178;2023-05-27T07:09:32;9.35;;;4.00;;
7645;SDS011;3864;48.180;14.178;2023-05-27T07:12:00;11.63;;;4.75;;
7645;SDS011;3864;48.180;14.178;2023-05-27T07:14:28;10.40;;;5.93;;
7645;SDS011;3864;48.180;14.178;2023-05-27T07:16:56;8.65;;;3.58;;
7645;SDS011;3864;48.180;14.178;2023-05-27T07:19:23;10.20;;;4.45;;
7645;SDS011;3864;48.180;14.178;2023-05-27T07:21:50;7.57;;;3.83;;
7645;SDS011;3864;48.180;14.178;2023-05-27T07:24:19;6.50;;;3.40;;
7645;SDS011;3864;48.180;14.178;2023-05-27T07:26:46;8.43;;;3.90;;
7645;SDS011;3864;48.180;14.178;2023-05-27T07:29:14;7.97;;;4.38;;
7645;SDS011;3864;48.180;14.178;2023-05-27T07:31:41;9.32;;;3.85;;
7645;SDS011;3864;48.180;14.178;2023-05-27T07:34:08;7.53;;;3.60;;
7645;SDS011;3864;48.180;14.178;2023-05-27T07:36:36;7.32;;;3.20;;
7645;SDS011;3864;48.180;14.178;2023-05-27T07:39:03;9.20;;;4.32;;
7645;SDS011;3864;48.180;14.178;2023-05-27T07:41:32;7.32;;;3.75;;
7645;SDS011;3864;48.180;14.178;2023-05-27T07:43:59;10.57;;;3.70;;
7645;SDS011;3864;48.180;14.178;2023-05-27T07:46:27;8.07;;;3.60;;
7645;SDS011;3864;48.180;14.178;2023-05-27T07:48:55;12.38;;;3.83;;
7645;SDS011;3864;48.180;14.178;2023-05-27T07:51:22;8.63;;;3.90;;
7645;SDS011;3864;48.180;14.178;2023-05-27T07:53:50;11.35;;;4.57;;
7645;SDS011;3864;48.180;14.178;2023-05-27T07:56:17;10.50;;;4.55;;
7645;SDS011;3864;48.180;14.178;2023-05-27T07:58:46;9.13;;;4.85;;
7645;SDS011;3864;48.180;14.178;2023-05-27T08:01:13;7.22;;;4.00;;
7645;SDS011;3864;48.180;14.178;2023-05-27T08:03:40;9.98;;;4.03;;
7645;SDS011;3864;48.180;14.178;2023-05-27T08:06:08;7.30;;;3.60;;
7645;SDS011;3864;48.180;14.178;2023-05-27T08:08:35;9.38;;;3.80;;
7645;SDS011;3864;48.180;14.178;2023-05-27T08:11:51;7.60;;;3.60;;
7645;SDS011;3864;48.180;14.178;2023-05-27T08:14:21;8.75;;;3.50;;
7645;SDS011;3864;48.180;14.178;2023-05-27T08:16:49;9.50;;;3.63;;
7645;SDS011;3864;48.180;14.178;2023-05-27T08:19:17;12.27;;;3.63;;
7645;SDS011;3864;48.180;14.178;2023-05-27T08:21:44;8.10;;;3.47;;
7645;SDS011;3864;48.180;14.178;2023-05-27T08:24:11;8.27;;;3.60;;
7645;SDS011;3864;48.180;14.178;2023-05-27T08:26:39;8.90;;;4.25;;
7645;SDS011;3864;48.180;14.178;2023-05-27T08:29:07;11.07;;;4.38;;
7645;SDS011;3864;48.180;14.178;2023-05-27T08:31:55;12.48;;;3.95;;
7645;SDS011;3864;48.180;14.178;2023-05-27T08:34:23;8.23;;;4.18;;
7645;SDS011;3864;48.180;14.178;2023-05-27T08:36:51;10.05;;;3.58;;
7645;SDS011;3864;48.180;14.178;2023-05-27T08:39:18;12.05;;;4.40;;
7645;SDS011;3864;48.180;14.178;2023-05-27T08:41:45;12.63;;;4.65;;
7645;SDS011;3864;48.180;14.178;2023-05-27T08:44:13;9.00;;;3.95;;
7645;SDS011;3864;48.180;14.178;2023-05-27T08:46:40;7.03;;;3.88;;
7645;SDS011;3864;48.180;14.178;2023-05-27T08:49:09;9.80;;;4.03;;
7645;SDS011;3864;48.180;14.178;2023-05-27T08:51:37;7.70;;;3.75;;
7645;SDS011;3864;48.180;14.178;2023-05-27T08:54:07;9.50;;;3.92;;
7645;SDS011;3864;48.180;14.178;2023-05-27T08:56:35;7.78;;;3.67;;
7645;SDS011;3864;48.180;14.178;2023-05-27T08:59:06;11.23;;;3.92;;
7645;SDS011;3864;48.180;14.178;2023-05-27T09:01:35;9.52;;;4.55;;
7645;SDS011;3864;48.180;14.178;2023-05-27T09:04:03;9.30;;;4.00;;
7645;SDS011;3864;48.180;14.178;2023-05-27T09:06:32;8.25;;;3.53;;
7645;SDS011;3864;48.180;14.178;2023-05-27T09:08:59;10.10;;;4.05;;
7645;SDS011;3864;48.180;14.178;2023-05-27T09:11:27;9.82;;;4.20;;
7645;SDS011;3864;48.180;14.178;2023-05-27T09:13:59;8.15;;;3.58;;
7645;SDS011;3864;48.180;14.178;2023-05-27T09:16:26;10.05;;;3.80;;
7645;SDS011;3864;48.180;14.178;2023-05-27T09:18:54;8.93;;;4.22;;
7645;SDS011;3864;48.180;14.178;2023-05-27T09:21:23;9.18;;;3.60;;
7645;SDS011;3864;48.180;14.178;2023-05-27T09:23:54;10.48;;;4.22;;
7645;SDS011;3864;48.180;14.178;2023-05-27T09:26:22;10.93;;;4.18;;
7645;SDS011;3864;48.180;14.178;2023-05-27T09:28:50;7.78;;;3.47;;
7645;SDS011;3864;48.180;14.178;2023-05-27T09:31:31;6.40;;;3.70;;
7645;SDS011;3864;48.180;14.178;2023-05-27T09:34:08;12.57;;;3.88;;
7645;SDS011;3864;48.180;14.178;2023-05-27T09:36:41;10.30;;;4.22;;
7645;SDS011;3864;48.180;14.178;2023-05-27T09:39:11;10.23;;;4.45;;
7645;SDS011;3864;48.180;14.178;2023-05-27T09:41:40;8.43;;;3.58;;
7645;SDS011;3864;48.180;14.178;2023-05-27T09:44:08;8.50;;;3.40;;
7645;SDS011;3864;48.180;14.178;2023-05-27T09:46:36;9.23;;;3.55;;
7645;SDS011;3864;48.180;14.178;2023-05-27T09:49:05;9.05;;;3.72;;
7645;SDS011;3864;48.180;14.178;2023-05-27T09:51:34;11.27;;;3.95;;
7645;SDS011;3864;48.180;14.178;2023-05-27T09:54:04;7.97;;;4.15;;
7645;SDS011;3864;48.180;14.178;2023-05-27T09:56:34;8.75;;;3.55;;
7645;SDS011;3864;48.180;14.178;2023-05-27T09:59:02;10.38;;;4.38;;
7645;SDS011;3864;48.180;14.178;2023-05-27T10:01:31;7.30;;;3.58;;
7645;SDS011;3864;48.180;14.178;2023-05-27T10:04:00;7.55;;;3.83;;
7645;SDS011;3864;48.180;14.178;2023-05-27T10:06:30;11.05;;;3.83;;
7645;SDS011;3864;48.180;14.178;2023-05-27T10:09:00;7.63;;;3.72;;
7645;SDS011;3864;48.180;14.178;2023-05-27T10:11:30;7.65;;;3.88;;
7645;SDS011;3864;48.180;14.178;2023-05-27T10:14:02;8.43;;;3.60;;
7645;SDS011;3864;48.180;14.178;2023-05-27T10:16:31;8.50;;;3.17;;
7645;SDS011;3864;48.180;14.178;2023-05-27T10:18:59;8.52;;;3.50;;
7645;SDS011;3864;48.180;14.178;2023-05-27T10:21:26;10.50;;;4.00;;
7645;SDS011;3864;48.180;14.178;2023-05-27T10:23:56;7.95;;;3.67;;
7645;SDS011;3864;48.180;14.178;2023-05-27T10:26:33;10.05;;;3.47;;
7645;SDS011;3864;48.180;14.178;2023-05-27T10:31:35;9.18;;;3.53;;
7645;SDS011;3864;48.180;14.178;2023-05-27T10:34:10;8.40;;;3.83;;
7645;SDS011;3864;48.180;14.178;2023-05-27T10:36:37;8.68;;;3.28;;
7645;SDS011;3864;48.180;14.178;2023-05-27T10:39:05;9.40;;;4.03;;
7645;SDS011;3864;48.180;14.178;2023-05-27T10:41:39;8.63;;;3.97;;
7645;SDS011;3864;48.180;14.178;2023-05-27T10:44:09;8.45;;;3.55;;
7645;SDS011;3864;48.180;14.178;2023-05-27T10:46:37;7.82;;;3.85;;
7645;SDS011;3864;48.180;14.178;2023-05-27T10:49:09;12.90;;;4.20;;
7645;SDS011;3864;48.180;14.178;2023-05-27T10:51:38;9.07;;;4.18;;
7645;SDS011;3864;48.180;14.178;2023-05-27T10:54:06;8.48;;;3.83;;
7645;SDS011;3864;48.180;14.178;2023-05-27T10:56:33;6.45;;;3.42;;
7645;SDS011;3864;48.180;14.178;2023-05-27T10:59:01;7.72;;;3.50;;
7645;SDS011;3864;48.180;14.178;2023-05-27T11:01:31;7.95;;;3.35;;
7645;SDS011;3864;48.180;14.178;2023-05-27T11:04:00;8.20;;;3.70;;
7645;SDS011;3864;48.180;14.178;2023-05-27T11:06:28;7.80;;;3.60;;
7645;SDS011;3864;48.180;14.178;2023-05-27T11:08:55;9.57;;;4.25;;
7645;SDS011;3864;48.180;14.178;2023-05-27T11:11:23;9.20;;;4.00;;
7645;SDS011;3864;48.180;14.178;2023-05-27T11:13:51;9.77;;;3.65;;
7645;SDS011;3864;48.180;14.178;2023-05-27T11:16:20;11.57;;;4.30;;
7645;SDS011;3864;48.180;14.178;2023-05-27T11:18:49;6.82;;;3.88;;
7645;SDS011;3864;48.180;14.178;2023-05-27T11:21:17;10.40;;;4.15;;
7645;SDS011;3864;48.180;14.178;2023-05-27T11:23:45;10.18;;;3.80;;
7645;SDS011;3864;48.180;14.178;2023-05-27T11:26:14;7.03;;;3.60;;
7645;SDS011;3864;48.180;14.178;2023-05-27T11:28:44;6.55;;;3.72;;
7645;SDS011;3864;48.180;14.178;2023-05-27T11:31:13;7.53;;;3.40;;
7645;SDS011;3864;48.180;14.178;2023-05-27T11:33:41;8.50;;;3.72;;
7645;SDS011;3864;48.180;14.178;2023-05-27T11:36:13;7.38;;;3.40;;
7645;SDS011;3864;48.180;14.178;2023-05-27T11:38:48;7.68;;;3.72;;
7645;SDS011;3864;48.180;14.178;2023-05-27T11:41:20;5.32;;;3.40;;
7645;SDS011;3864;48.180;14.178;2023-05-27T11:43:54;9.52;;;3.88;;
7645;SDS011;3864;48.180;14.178;2023-05-27T11:46:23;7.75;;;3.60;;
7645;SDS011;3864;48.180;14.178;2023-05-27T11:48:59;6.78;;;3.80;;
7645;SDS011;3864;48.180;14.178;2023-05-27T11:51:29;5.68;;;3.38;;
7645;SDS011;3864;48.180;14.178;2023-05-27T11:53:58;7.55;;;3.72;;
7645;SDS011;3864;48.180;14.178;2023-05-27T11:56:27;6.65;;;3.40;;
7645;SDS011;3864;48.180;14.178;2023-05-27T11:58:56;9.30;;;3.60;;
7645;SDS011;3864;48.180;14.178;2023-05-27T12:01:23;7.40;;;3.55;;
7645;SDS011;3864;48.180;14.178;2023-05-27T12:03:51;8.55;;;4.22;;
7645;SDS011;3864;48.180;14.178;2023-05-27T12:06:19;9.93;;;4.28;;
7645;SDS011;3864;48.180;14.178;2023-05-27T12:08:48;6.78;;;4.07;;
7645;SDS011;3864;48.180;14.178;2023-05-27T12:11:15;7.40;;;3.75;;
7645;SDS011;3864;48.180;14.178;2023-05-27T12:13:43;6.00;;;3.55;;
7645;SDS011;3864;48.180;14.178;2023-05-27T12:16:10;7.43;;;4.13;;
7645;SDS011;3864;48.180;14.178;2023-05-27T12:18:37;7.80;;;3.67;;
7645;SDS011;3864;48.180;14.178;2023-05-27T12:21:06;8.32;;;3.63;;
7645;SDS011;3864;48.180;14.178;2023-05-27T12:23:34;9.25;;;3.20;;
7645;SDS011;3864;48.180;14.178;2023-05-27T12:26:03;7.63;;;3.47;;
7645;SDS011;3864;48.180;14.178;2023-05-27T12:28:30;9.73;;;3.88;;
7645;SDS011;3864;48.180;14.178;2023-05-27T12:30:57;7.00;;;4.28;;
7645;SDS011;3864;48.180;14.178;2023-05-27T12:33:25;8.55;;;4.10;;
7645;SDS011;3864;48.180;14.178;2023-05-27T12:35:53;8.25;;;4.00;;
7645;SDS011;3864;48.180;14.178;2023-05-27T12:38:20;6.97;;;3.50;;
7645;SDS011;3864;48.180;14.178;2023-05-27T12:40:47;7.95;;;4.15;;
7645;SDS011;3864;48.180;14.178;2023-05-27T12:43:16;10.88;;;4.03;;
7645;SDS011;3864;48.180;14.178;2023-05-27T12:45:44;6.43;;;3.60;;
7645;SDS011;3864;48.180;14.178;2023-05-27T12:48:11;7.38;;;3.72;;
7645;SDS011;3864;48.180;14.178;2023-05-27T12:50:39;7.07;;;3.50;;
7645;SDS011;3864;48.180;14.178;2023-05-27T12:53:07;7.97;;;3.92;;
7645;SDS011;3864;48.180;14.178;2023-05-27T12:55:35;7.18;;;3.70;;
7645;SDS011;3864;48.180;14.178;2023-05-27T12:58:03;8.00;;;4.00;;
7645;SDS011;3864;48.180;14.178;2023-05-27T13:00:32;9.60;;;3.70;;
7645;SDS011;3864;48.180;14.178;2023-05-27T13:03:00;7.70;;;3.70;;
7645;SDS011;3864;48.180;14.178;2023-05-27T13:05:27;7.53;;;3.45;;
7645;SDS011;3864;48.180;14.178;2023-05-27T13:07:56;7.97;;;3.90;;
7645;SDS011;3864;48.180;14.178;2023-05-27T13:10:26;8.93;;;3.70;;
7645;SDS011;3864;48.180;14.178;2023-05-27T13:12:55;9.50;;;3.50;;
7645;SDS011;3864;48.180;14.178;2023-05-27T13:15:22;7.45;;;3.50;;
7645;SDS011;3864;48.180;14.178;2023-05-27T13:17:53;7.10;;;3.63;;
7645;SDS011;3864;48.180;14.178;2023-05-27T13:20:21;7.40;;;3.50;;
7645;SDS011;3864;48.180;14.178;2023-05-27T13:22:51;6.25;;;3.58;;
7645;SDS011;3864;48.180;14.178;2023-05-27T13:25:19;6.55;;;3.55;;
7645;SDS011;3864;48.180;14.178;2023-05-27T13:27:47;6.65;;;3.53;;
7645;SDS011;3864;48.180;14.178;2023-05-27T13:30:16;7.88;;;3.97;;
7645;SDS011;3864;48.180;14.178;2023-05-27T13:32:44;8.93;;;3.25;;
7645;SDS011;3864;48.180;14.178;2023-05-27T13:35:14;7.88;;;3.78;;
7645;SDS011;3864;48.180;14.178;2023-05-27T13:37:42;6.93;;;4.20;;
7645;SDS011;3864;48.180;14.178;2023-05-27T13:40:10;6.97;;;3.40;;
7645;SDS011;3864;48.180;14.178;2023-05-27T13:42:38;6.43;;;3.30;;
7645;SDS011;3864;48.180;14.178;2023-05-27T13:45:07;11.85;;;4.07;;
7645;SDS011;3864;48.180;14.178;2023-05-27T13:47:35;6.65;;;4.05;;
7645;SDS011;3864;48.180;14.178;2023-05-27T13:50:06;7.18;;;3.60;;
7645;SDS011;3864;48.180;14.178;2023-05-27T13:52:35;6.75;;;4.30;;
7645;SDS011;3864;48.180;14.178;2023-05-27T13:55:04;8.13;;;3.58;;
7645;SDS011;3864;48.180;14.178;2023-05-27T13:57:33;8.48;;;3.85;;
7645;SDS011;3864;48.180;14.178;2023-05-27T14:00:01;6.93;;;3.90;;
7645;SDS011;3864;48.180;14.178;2023-05-27T14:02:31;8.10;;;3.72;;
7645;SDS011;3864;48.180;14.178;2023-05-27T14:04:58;7.53;;;4.05;;
7645;SDS011;3864;48.180;14.178;2023-05-27T14:07:27;7.40;;;3.42;;
7645;SDS011;3864;48.180;14.178;2023-05-27T14:09:56;5.70;;;3.55;;
7645;SDS011;3864;48.180;14.178;2023-05-27T14:12:24;7.25;;;3.58;;
7645;SDS011;3864;48.180;14.178;2023-05-27T14:14:52;8.13;;;3.80;;
7645;SDS011;3864;48.180;14.178;2023-05-27T14:17:20;7.68;;;3.80;;
7645;SDS011;3864;48.180;14.178;2023-05-27T14:19:49;7.43;;;3.97;;
7645;SDS011;3864;48.180;14.178;2023-05-27T14:22:17;5.55;;;3.55;;
7645;SDS011;3864;48.180;14.178;2023-05-27T14:24:47;7.95;;;3.83;;
7645;SDS011;3864;48.180;14.178;2023-05-27T14:27:17;10.75;;;3.88;;
7645;SDS011;3864;48.180;14.178;2023-05-27T14:29:45;7.22;;;3.30;;
7645;SDS011;3864;48.180;14.178;2023-05-27T14:32:13;8.25;;;3.65;;
7645;SDS011;3864;48.180;14.178;2023-05-27T14:34:41;7.82;;;3.60;;
7645;SDS011;3864;48.180;14.178;2023-05-27T14:37:08;7.80;;;3.80;;
7645;SDS011;3864;48.180;14.178;2023-05-27T14:39:38;10.60;;;3.60;;
7645;SDS011;3864;48.180;14.178;2023-05-27T14:42:06;7.35;;;3.85;;
7645;SDS011;3864;48.180;14.178;2023-05-27T14:44:36;8.48;;;3.75;;
7645;SDS011;3864;48.180;14.178;2023-05-27T14:47:04;7.45;;;4.10;;
7645;SDS011;3864;48.180;14.178;2023-05-27T14:49:32;6.00;;;3.40;;
7645;SDS011;3864;48.180;14.178;2023-05-27T14:51:59;8.98;;;3.55;;
7645;SDS011;3864;48.180;14.178;2023-05-27T14:54:26;7.57;;;3.80;;
7645;SDS011;3864;48.180;14.178;2023-05-27T14:56:54;7.03;;;3.88;;
7645;SDS011;3864;48.180;14.178;2023-05-27T14:59:21;5.65;;;3.55;;
7645;SDS011;3864;48.180;14.178;2023-05-27T15:01:51;7.68;;;3.90;;
7645;SDS011;3864;48.180;14.178;2023-05-27T15:04:19;6.90;;;3.53;;
7645;SDS011;3864;48.180;14.178;2023-05-27T15:06:47;8.40;;;4.00;;
7645;SDS011;3864;48.180;14.178;2023-05-27T15:09:15;8.60;;;4.47;;